Time;durP1;ratioP1;P1;durP2;ratioP2;P2;SDS_P1;SDS_P2;PMS_P1;PMS_P2;Temp;Humidity;BMP_temperature;BMP_pressure;BME280_temperature;BME280_humidity;BME280_pressure;Samples;Min_cycle;Max_cycle;Signal;HPM_P1;HPM_P2
2023/09/20 00:00:58;;;;;;;;;;;;;;;16.75;42.58;100349.16;4942471;28;98157;-68
2023/09/20 00:03:25;;;;;;;;;;;;;;;16.73;42.43;100345.91;4948650;28;97982;-68
2023/09/20 00:05:53;;;;;;;;;;;;;;;16.72;42.54;100353.28;4953067;28;100418;-68
2023/09/20 00:08:19;;;;;;;;;;;;;;;16.69;42.56;100343.78;4963358;28;98270;-65
2023/09/20 00:10:46;;;;;;;;;;;;;;;16.68;42.56;100352.28;4950605;28;98269;-66
2023/09/20 00:13:13;;;;;;;;;;;;;;;16.66;42.53;100349.88;4926842;28;98359;-65
2023/09/20 00:15:43;;;;;;;;;;;;;;;16.66;42.58;100351.78;4963089;28;99720;-68
2023/09/20 00:18:09;;;;;;;;;;;;;;;16.65;42.51;100350.19;4950251;28;99007;-65
2023/09/20 00:20:36;;;;;;;;;;;;;;;16.63;42.54;100347.78;4921844;28;98201;-65
2023/09/20 00:23:03;;;;;;;;;;;;;;;16.62;42.47;100350.78;4948394;28;98109;-65
2023/09/20 00:25:30;;;;;;;;;;;;;;;16.60;42.48;100350.31;4945012;28;98197;-65
2023/09/20 00:27:56;;;;;;;;;;;;;;;16.57;42.48;100343.56;4964075;28;98039;-65
2023/09/20 00:30:23;;;;;;;;;;;;;;;16.56;42.52;100347.41;4965693;28;98347;-66
2023/09/20 00:32:50;;;;;;;;;;;;;;;16.54;42.58;100349.63;4942635;28;98675;-65
2023/09/20 00:35:17;;;;;;;;;;;;;;;16.53;42.59;100349.94;4944384;28;98153;-66
2023/09/20 00:37:47;;;;;;;;;;;;;;;16.50;42.61;100348.63;4977997;27;98417;-68
2023/09/20 00:40:18;;;;;;;;;;;;;;;16.49;42.49;100351.66;4928549;28;98325;-68
2023/09/20 00:42:51;;;;;;;;;;;;;;;16.48;42.49;100347.34;4931030;28;98505;-68
2023/09/20 00:45:22;;;;;;;;;;;;;;;16.44;42.50;100347.97;4959619;28;98129;-68
2023/09/20 00:47:56;;;;;;;;;;;;;;;16.43;42.48;100345.56;4946778;28;99277;-69
2023/09/20 00:50:24;;;;;;;;;;;;;;;16.40;42.51;100351.63;4929429;28;99338;-65
2023/09/20 00:52:54;;;;;;;;;;;;;;;16.36;42.62;100346.00;4930898;28;98665;-68
2023/09/20 00:55:28;;;;;;;;;;;;;;;16.32;42.60;100350.44;4943681;28;98313;-68
2023/09/20 00:57:56;;;;;;;;;;;;;;;16.28;42.67;100354.09;4941164;28;98810;-65
2023/09/20 01:00:27;;;;;;;;;;;;;;;16.24;42.77;100362.06;4960874;28;99215;-68
2023/09/20 01:03:00;;;;;;;;;;;;;;;16.23;42.56;100352.28;4929081;28;99406;-65
2023/09/20 01:05:34;;;;;;;;;;;;;;;16.20;42.68;100350.19;4945354;28;99152;-68
2023/09/20 01:08:01;;;;;;;;;;;;;;;16.17;42.69;100348.06;4945826;28;98276;-65
2023/09/20 01:10:31;;;;;;;;;;;;;;;16.14;42.69;100348.69;4938265;28;98289;-65
2023/09/20 01:13:04;;;;;;;;;;;;;;;16.12;42.83;100349.00;4960795;27;97987;-68
2023/09/20 01:15:31;;;;;;;;;;;;;;;16.10;42.69;100347.69;4947790;28;99571;-65
2023/09/20 01:17:59;;;;;;;;;;;;;;;16.08;42.72;100348.00;4930579;28;98524;-68
2023/09/20 01:20:25;;;;;;;;;;;;;;;16.08;42.70;100349.91;4947861;28;97886;-68
2023/09/20 01:22:54;;;;;;;;;;;;;;;16.07;42.66;100349.13;4947980;28;98495;-65
2023/09/20 01:25:27;;;;;;;;;;;;;;;16.05;42.65;100337.75;4947645;28;98529;-68
2023/09/20 01:28:06;;;;;;;;;;;;;;;16.04;42.67;100338.84;4978967;27;97953;-65
2023/09/20 01:30:33;;;;;;;;;;;;;;;16.00;42.71;100337.84;4924439;28;98909;-68
2023/09/20 01:33:00;;;;;;;;;;;;;;;15.98;42.81;100341.97;4950769;28;98091;-65
2023/09/20 01:35:29;;;;;;;;;;;;;;;15.95;42.77;100336.06;4945121;28;99975;-68
2023/09/20 01:37:55;;;;;;;;;;;;;;;15.93;42.92;100335.56;4973275;27;98080;-66
2023/09/20 01:40:33;;;;;;;;;;;;;;;15.90;42.67;100330.72;4958288;28;98458;-65
2023/09/20 01:43:06;;;;;;;;;;;;;;;15.88;42.69;100324.00;4965293;28;98209;-68
2023/09/20 01:45:34;;;;;;;;;;;;;;;15.87;42.77;100328.59;4962383;28;98435;-65
2023/09/20 01:48:01;;;;;;;;;;;;;;;15.86;42.77;100329.72;4947618;28;99469;-67
2023/09/20 01:50:27;;;;;;;;;;;;;;;15.86;42.69;100334.38;4941807;28;99313;-68
2023/09/20 01:52:54;;;;;;;;;;;;;;;15.85;42.95;100327.31;4946682;28;98540;-68
2023/09/20 01:55:21;;;;;;;;;;;;;;;15.83;42.59;100330.34;4984059;27;99515;-68
2023/09/20 01:57:51;;;;;;;;;;;;;;;15.83;42.73;100337.69;4958765;28;99605;-65
2023/09/20 02:00:22;;;;;;;;;;;;;;;15.81;42.88;100335.28;4960607;28;98224;-65
2023/09/20 02:02:54;;;;;;;;;;;;;;;15.81;42.74;100337.19;4966180;28;100115;-68
2023/09/20 02:05:23;;;;;;;;;;;;;;;15.80;42.75;100341.00;4951839;28;98430;-68
2023/09/20 02:07:51;;;;;;;;;;;;;;;15.80;42.69;100330.13;4978388;27;99880;-65
2023/09/20 02:10:18;;;;;;;;;;;;;;;15.78;42.67;100335.09;4966661;28;98119;-68
2023/09/20 02:12:48;;;;;;;;;;;;;;;15.77;42.91;100337.00;4962496;28;98244;-65
2023/09/20 02:15:17;;;;;;;;;;;;;;;15.76;42.88;100332.69;4951995;28;99059;-68
2023/09/20 02:17:44;;;;;;;;;;;;;;;15.75;42.92;100335.69;4963597;28;98434;-68
2023/09/20 02:20:19;;;;;;;;;;;;;;;15.75;42.79;100338.41;4931079;28;98073;-65
2023/09/20 02:22:46;;;;;;;;;;;;;;;15.73;42.89;100340.63;4930092;28;98536;-66
2023/09/20 02:25:14;;;;;;;;;;;;;;;15.71;42.81;100344.44;4964608;28;98042;-68
2023/09/20 02:27:44;;;;;;;;;;;;;;;15.69;42.79;100351.31;4949508;28;98193;-68
2023/09/20 02:30:19;;;;;;;;;;;;;;;15.66;43.10;100338.31;4949963;28;100428;-68
2023/09/20 02:32:51;;;;;;;;;;;;;;;15.63;42.83;100342.41;4950018;28;99068;-68
2023/09/20 02:35:18;;;;;;;;;;;;;;;15.62;43.16;100342.72;4925970;28;99929;-68
2023/09/20 02:37:46;;;;;;;;;;;;;;;15.60;42.69;100343.03;4950203;28;98266;-68
2023/09/20 02:40:14;;;;;;;;;;;;;;;15.59;42.97;100340.63;4967331;28;98173;-65
2023/09/20 02:42:43;;;;;;;;;;;;;;;15.58;43.00;100334.38;4930256;28;101114;-68
2023/09/20 02:45:13;;;;;;;;;;;;;;;15.56;42.66;100336.59;4931966;28;99093;-66
2023/09/20 02:47:43;;;;;;;;;;;;;;;15.55;42.92;100348.56;4973564;27;98298;-66
2023/09/20 02:50:13;;;;;;;;;;;;;;;15.53;42.70;100350.78;4945719;28;98312;-68
2023/09/20 02:52:40;;;;;;;;;;;;;;;15.51;43.02;100344.03;4949407;28;98205;-67
2023/09/20 02:55:07;;;;;;;;;;;;;;;15.49;42.89;100349.00;4962463;28;99615;-67
2023/09/20 02:57:36;;;;;;;;;;;;;;;15.46;43.01;100342.25;4949247;28;98827;-65
2023/09/20 03:00:16;;;;;;;;;;;;;;;15.44;42.86;100348.00;4963968;28;98776;-65
2023/09/20 03:02:50;;;;;;;;;;;;;;;15.43;42.90;100348.28;4953550;28;98126;-68
2023/09/20 03:05:21;;;;;;;;;;;;;;;15.41;43.01;100351.31;4943850;28;99886;-68
2023/09/20 03:07:49;;;;;;;;;;;;;;;15.37;42.80;100347.56;4947819;28;98278;-68
2023/09/20 03:10:16;;;;;;;;;;;;;;;15.34;43.13;100345.47;4932407;28;98180;-65
2023/09/20 03:12:46;;;;;;;;;;;;;;;15.32;43.19;100339.50;4942150;28;97938;-68
2023/09/20 03:15:17;;;;;;;;;;;;;;;15.29;43.05;100332.00;4983363;27;97972;-68
2023/09/20 03:17:47;;;;;;;;;;;;;;;15.29;42.90;100340.13;4965279;28;98269;-68
2023/09/20 03:20:23;;;;;;;;;;;;;;;15.29;43.12;100331.16;4945448;28;98666;-65
2023/09/20 03:22:57;;;;;;;;;;;;;;;15.29;42.91;100342.03;4935497;28;98545;-66
2023/09/20 03:25:24;;;;;;;;;;;;;;;15.29;43.03;100350.16;4930544;28;98270;-68
2023/09/20 03:27:51;;;;;;;;;;;;;;;15.30;43.07;100346.38;4935833;28;100217;-68
2023/09/20 03:30:20;;;;;;;;;;;;;;;15.30;42.96;100347.16;4934939;28;99864;-66
2023/09/20 03:32:46;;;;;;;;;;;;;;;15.30;43.24;100344.44;4927528;28;98294;-68
2023/09/20 03:35:13;;;;;;;;;;;;;;;15.28;43.27;100346.66;4960012;28;98103;-68
2023/09/20 03:37:41;;;;;;;;;;;;;;;15.26;43.17;100340.72;4949194;28;98726;-65
2023/09/20 03:40:10;;;;;;;;;;;;;;;15.27;43.00;100338.81;4964578;28;98399;-65
2023/09/20 03:42:40;;;;;;;;;;;;;;;15.26;43.17;100346.16;4961651;28;98282;-65
2023/09/20 03:45:10;;;;;;;;;;;;;;;15.26;42.98;100346.16;4963766;28;98358;-65
2023/09/20 03:47:37;;;;;;;;;;;;;;;15.27;43.12;100342.34;4982097;27;98233;-68
2023/09/20 03:50:04;;;;;;;;;;;;;;;15.27;43.23;100344.25;4952612;28;98123;-68
2023/09/20 03:52:31;;;;;;;;;;;;;;;15.28;43.29;100343.94;4952447;28;98010;-68
2023/09/20 03:54:58;;;;;;;;;;;;;;;15.27;43.28;100336.09;4927944;28;98381;-68
2023/09/20 03:57:25;;;;;;;;;;;;;;;15.26;43.18;100340.72;4950959;28;98319;-68
2023/09/20 03:59:54;;;;;;;;;;;;;;;15.26;43.16;100340.72;4957484;28;99216;-65
2023/09/20 04:02:25;;;;;;;;;;;;;;;15.29;43.41;100342.84;4965385;28;98857;-66
2023/09/20 04:04:55;;;;;;;;;;;;;;;15.32;42.97;100338.72;4967564;28;100382;-66
2023/09/20 04:07:26;;;;;;;;;;;;;;;15.35;43.17;100336.19;4931328;28;99053;-68
2023/09/20 04:09:53;;;;;;;;;;;;;;;15.39;43.38;100336.41;4944257;28;98055;-65
2023/09/20 04:12:22;;;;;;;;;;;;;;;15.42;43.13;100335.81;4962897;28;98230;-68
2023/09/20 04:14:51;;;;;;;;;;;;;;;15.43;43.03;100327.34;4950505;28;98185;-66
2023/09/20 04:17:18;;;;;;;;;;;;;;;15.46;43.09;100332.19;4963693;28;100208;-65
2023/09/20 04:19:44;;;;;;;;;;;;;;;15.47;43.14;100328.34;4946910;28;98007;-66
2023/09/20 04:22:11;;;;;;;;;;;;;;;15.49;43.21;100338.91;4950360;28;97944;-66
2023/09/20 04:24:38;;;;;;;;;;;;;;;15.52;43.06;100345.66;4981228;27;98166;-66
2023/09/20 04:27:05;;;;;;;;;;;;;;;15.53;43.07;100345.34;4928468;28;98018;-66
2023/09/20 04:29:31;;;;;;;;;;;;;;;15.56;43.05;100349.34;4930747;28;98325;-69
2023/09/20 04:31:58;;;;;;;;;;;;;;;15.59;43.34;100346.03;4974793;27;98211;-69
2023/09/20 04:34:24;;;;;;;;;;;;;;;15.61;43.15;100346.56;4944071;28;99675;-67
2023/09/20 04:36:52;;;;;;;;;;;;;;;15.63;43.22;100339.69;4931874;28;98398;-67
2023/09/20 04:39:20;;;;;;;;;;;;;;;15.67;43.00;100342.66;4935455;28;98081;-66
2023/09/20 04:41:46;;;;;;;;;;;;;;;15.68;43.13;100358.66;4942444;28;98772;-66
2023/09/20 04:44:13;;;;;;;;;;;;;;;15.71;43.26;100351.78;4936160;28;98305;-66
2023/09/20 04:46:40;;;;;;;;;;;;;;;15.74;43.13;100350.41;4946871;28;98585;-68
2023/09/20 04:49:08;;;;;;;;;;;;;;;15.79;43.28;100353.78;4949257;28;97910;-66
2023/09/20 04:51:34;;;;;;;;;;;;;;;15.81;43.38;100348.06;4942863;28;98377;-69
2023/09/20 04:54:00;;;;;;;;;;;;;;;15.80;43.12;100355.44;4919931;28;98781;-69
2023/09/20 04:56:27;;;;;;;;;;;;;;;15.84;43.35;100361.84;4943825;28;98706;-66
2023/09/20 04:58:57;;;;;;;;;;;;;;;15.87;43.14;100361.22;4960490;28;99796;-66
2023/09/20 05:01:24;;;;;;;;;;;;;;;15.88;43.06;100360.13;4946906;28;100312;-66
2023/09/20 05:03:50;;;;;;;;;;;;;;;15.90;43.22;100362.53;4944088;28;98422;-68
2023/09/20 05:06:18;;;;;;;;;;;;;;;15.91;43.27;100358.69;4927081;28;100256;-66
2023/09/20 05:08:45;;;;;;;;;;;;;;;15.93;43.11;100361.94;4959018;28;98721;-66
2023/09/20 05:11:13;;;;;;;;;;;;;;;15.95;43.19;100365.97;4959163;28;98207;-66
2023/09/20 05:13:39;;;;;;;;;;;;;;;15.99;43.34;100365.34;4956975;28;98494;-66
2023/09/20 05:16:06;;;;;;;;;;;;;;;15.99;43.34;100377.00;4960674;28;98682;-68
2023/09/20 05:18:32;;;;;;;;;;;;;;;16.02;43.40;100368.25;4927368;28;98657;-68
2023/09/20 05:20:59;;;;;;;;;;;;;;;16.03;43.21;100366.31;4945677;28;98047;-68
2023/09/20 05:23:25;;;;;;;;;;;;;;;16.03;43.37;100372.56;4932933;28;98216;-69
2023/09/20 05:25:52;;;;;;;;;;;;;;;16.05;43.44;100377.72;4953291;28;98832;-68
2023/09/20 05:28:19;;;;;;;;;;;;;;;16.05;43.17;100381.22;4948884;28;98055;-69
2023/09/20 05:30:46;;;;;;;;;;;;;;;16.07;43.25;100381.75;4948008;28;98172;-66
2023/09/20 05:33:12;;;;;;;;;;;;;;;16.10;43.22;100369.44;4943301;28;98237;-66
2023/09/20 05:35:42;;;;;;;;;;;;;;;16.13;43.40;100377.00;4944912;28;99285;-68
2023/09/20 05:38:12;;;;;;;;;;;;;;;16.13;43.05;100383.22;4976730;27;98092;-66
2023/09/20 05:40:38;;;;;;;;;;;;;;;16.17;43.19;100378.78;4945864;27;98312;-68
2023/09/20 05:43:06;;;;;;;;;;;;;;;16.22;43.23;100380.56;4938638;28;98212;-69
2023/09/20 05:45:33;;;;;;;;;;;;;;;16.28;43.25;100389.44;4922503;28;98163;-68
2023/09/20 05:48:03;;;;;;;;;;;;;;;16.32;43.10;100391.22;4961966;28;98317;-66
2023/09/20 05:50:35;;;;;;;;;;;;;;;16.35;43.11;100389.81;4949265;28;99765;-68
2023/09/20 05:53:06;;;;;;;;;;;;;;;16.42;43.16;100387.47;4949517;28;98825;-68
2023/09/20 05:55:35;;;;;;;;;;;;;;;16.47;43.08;100386.56;4948304;28;98769;-69
2023/09/20 05:58:02;;;;;;;;;;;;;;;16.52;43.09;100389.16;4955297;28;98427;-68
2023/09/20 06:00:29;;;;;;;;;;;;;;;16.58;43.16;100390.63;4927478;28;102413;-69
2023/09/20 06:02:59;;;;;;;;;;;;;;;16.66;43.10;100381.72;4972904;27;99102;-68
2023/09/20 06:05:26;;;;;;;;;;;;;;;16.73;42.97;100390.28;4925179;28;100348;-69
2023/09/20 06:07:57;;;;;;;;;;;;;;;16.81;43.09;100386.00;4945889;28;98342;-68
2023/09/20 06:10:23;;;;;;;;;;;;;;;16.89;43.01;100377.88;4959080;28;101869;-68
2023/09/20 06:12:53;;;;;;;;;;;;;;;16.99;42.95;100386.94;4945268;28;99024;-66
2023/09/20 06:15:19;;;;;;;;;;;;;;;17.10;42.97;100391.78;4945020;27;98202;-66
2023/09/20 06:17:49;;;;;;;;;;;;;;;17.26;42.80;100394.91;4948167;28;98211;-69
2023/09/20 06:20:21;;;;;;;;;;;;;;;17.39;42.71;100394.00;4944004;28;99599;-66
2023/09/20 06:22:51;;;;;;;;;;;;;;;17.52;42.74;100394.19;4945774;28;98100;-68
2023/09/20 06:25:20;;;;;;;;;;;;;;;17.62;42.73;100397.44;4942409;28;97886;-67
2023/09/20 06:27:50;;;;;;;;;;;;;;;17.71;42.49;100397.47;4947763;28;101251;-68
2023/09/20 06:30:17;;;;;;;;;;;;;;;17.77;42.63;100396.25;4944853;28;98433;-69
2023/09/20 06:32:44;;;;;;;;;;;;;;;17.83;42.68;100403.13;4944249;27;98901;-66
2023/09/20 06:35:11;;;;;;;;;;;;;;;17.97;42.65;100402.22;4955054;28;98136;-66
2023/09/20 06:37:40;;;;;;;;;;;;;;;18.02;42.69;100404.78;4944713;28;98127;-66
2023/09/20 06:43:02;;;;;;;;;;;;;;;18.15;42.70;100396.44;4948954;28;98997;-67
2023/09/20 06:45:29;;;;;;;;;;;;;;;18.27;42.56;100406.72;4946379;28;99638;-67
2023/09/20 06:47:55;;;;;;;;;;;;;;;18.45;42.47;100402.09;4962314;28;98623;-69
2023/09/20 06:50:22;;;;;;;;;;;;;;;18.45;42.59;100396.63;4926454;28;98086;-66
2023/09/20 06:52:48;;;;;;;;;;;;;;;18.47;42.64;100402.59;4949916;28;98340;-66
2023/09/20 06:55:19;;;;;;;;;;;;;;;18.51;42.72;100400.00;4955733;28;98649;-68
2023/09/20 06:57:48;;;;;;;;;;;;;;;18.59;42.54;100404.69;4929586;28;99744;-66
2023/09/20 07:00:26;;;;;;;;;;;;;;;18.65;42.68;100406.91;4952493;28;98105;-66
2023/09/20 07:02:56;;;;;;;;;;;;;;;18.74;42.49;100403.38;4952218;28;98531;-69
2023/09/20 07:05:24;;;;;;;;;;;;;;;18.80;42.75;100404.84;4925822;28;98076;-66
2023/09/20 07:07:51;;;;;;;;;;;;;;;19.03;42.36;100398.03;4922969;28;98143;-66
2023/09/20 07:10:18;;;;;;;;;;;;;;;19.20;42.16;100412.75;4959638;28;98312;-66
2023/09/20 07:12:46;;;;;;;;;;;;;;;19.19;42.26;100402.97;4968253;27;100490;-69
2023/09/20 07:15:16;;;;;;;;;;;;;;;19.41;42.31;100410.09;4958889;28;98888;-69
2023/09/20 07:17:45;;;;;;;;;;;;;;;19.52;43.12;100405.88;4927195;28;98620;-68
2023/09/20 07:20:17;;;;;;;;;;;;;;;19.67;42.37;100410.03;4959231;28;98214;-68
2023/09/20 07:22:44;;;;;;;;;;;;;;;19.75;42.07;100409.19;4956669;28;98750;-69
2023/09/20 07:25:17;;;;;;;;;;;;;;;19.83;42.18;100411.88;4924973;28;99881;-69
2023/09/20 07:27:44;;;;;;;;;;;;;;;20.02;42.06;100413.38;4975191;27;98084;-68
2023/09/20 07:30:18;;;;;;;;;;;;;;;20.28;42.14;100405.00;4946444;28;98869;-69
2023/09/20 07:32:48;;;;;;;;;;;;;;;20.56;41.68;100400.59;4946511;28;98753;-66
2023/09/20 07:35:32;;;;;;;;;;;;;;;20.95;41.54;100414.88;4943133;28;98481;-66
2023/09/20 07:38:02;;;;;;;;;;;;;;;21.45;41.07;100404.81;4959162;27;97894;-69
2023/09/20 07:40:31;;;;;;;;;;;;;;;21.85;40.79;100402.19;4953399;28;99576;-69
2023/09/20 07:43:04;;;;;;;;;;;;;;;22.15;40.68;100410.97;4955316;28;98267;-66
2023/09/20 07:45:41;;;;;;;;;;;;;;;22.45;40.50;100413.41;4966297;28;101771;-69
2023/09/20 07:48:16;;;;;;;;;;;;;;;22.81;40.43;100414.41;4941916;28;98184;-68
2023/09/20 07:50:45;;;;;;;;;;;;;;;22.95;40.59;100417.56;4959968;28;98259;-66
2023/09/20 07:53:13;;;;;;;;;;;;;;;22.97;40.72;100413.31;4946660;28;100236;-69
2023/09/20 07:55:46;;;;;;;;;;;;;;;23.02;40.58;100413.03;4948557;28;98703;-66
2023/09/20 07:58:14;;;;;;;;;;;;;;;23.19;40.76;100411.94;4942853;28;99176;-66
2023/09/20 08:00:44;;;;;;;;;;;;;;;23.52;40.43;100413.53;4928672;28;98509;-68
2023/09/20 08:03:11;;;;;;;;;;;;;;;24.00;39.76;100414.28;4964760;27;98580;-68
2023/09/20 08:05:37;;;;;;;;;;;;;;;24.13;39.98;100403.94;4940626;28;98766;-68
2023/09/20 08:08:05;;;;;;;;;;;;;;;24.43;39.77;100405.00;4925577;28;99016;-66
2023/09/20 08:10:33;;;;;;;;;;;;;;;24.66;40.05;100407.03;4941723;28;98327;-66
2023/09/20 08:12:59;;;;;;;;;;;;;;;25.07;39.62;100408.19;4943481;28;99484;-69
2023/09/20 08:15:27;;;;;;;;;;;;;;;25.46;39.53;100408.09;4929824;28;107454;-66
2023/09/20 08:20:37;;;;;;;;;;;;;;;25.88;39.82;100407.19;4944316;28;98539;-66
2023/09/20 09:01:37;;;;;;;;;;;;;;;26.11;39.71;100396.06;4950787;28;98011;-63
2023/09/20 09:04:08;;;;;;;;;;;;;;;26.26;39.65;100389.56;4947910;28;98609;-56
2023/09/20 09:06:34;;;;;;;;;;;;;;;26.48;39.53;100389.84;4957143;28;98781;-63
2023/09/20 09:09:02;;;;;;;;;;;;;;;26.70;39.43;100388.13;4974858;27;99643;-63
2023/09/20 09:11:29;;;;;;;;;;;;;;;26.89;39.19;100393.47;4942918;28;99055;-57
2023/09/20 09:13:58;;;;;;;;;;;;;;;27.09;39.29;100386.53;4945062;28;98095;-57
2023/09/20 09:16:29;;;;;;;;;;;;;;;27.29;38.88;100389.91;4956578;28;99292;-63
2023/09/20 09:18:55;;;;;;;;;;;;;;;27.54;38.99;100381.00;4941771;28;101584;-56
2023/09/20 09:21:22;;;;;;;;;;;;;;;27.73;38.95;100379.94;4922831;28;98742;-56
2023/09/20 09:23:48;;;;;;;;;;;;;;;27.83;38.96;100374.53;4924293;28;98594;-63
2023/09/20 09:26:14;;;;;;;;;;;;;;;27.92;38.79;100367.84;4944198;28;98039;-63
2023/09/20 09:28:42;;;;;;;;;;;;;;;27.89;38.72;100364.66;4923849;28;98084;-63
2023/09/20 09:31:08;;;;;;;;;;;;;;;27.80;38.90;100358.66;4954276;28;97985;-63
2023/09/20 09:33:37;;;;;;;;;;;;;;;27.58;39.24;100357.69;4953082;28;98154;-57
2023/09/20 09:36:04;;;;;;;;;;;;;;;27.95;38.74;100354.00;4940961;28;98036;-63
2023/09/20 09:38:33;;;;;;;;;;;;;;;28.50;38.65;100351.09;4973077;27;99136;-63
2023/09/20 09:40:59;;;;;;;;;;;;;;;29.25;38.15;100342.09;4954973;28;98527;-56
2023/09/20 09:43:31;;;;;;;;;;;;;;;29.89;37.38;100341.97;4939809;28;99849;-63
2023/09/20 09:46:08;;;;;;;;;;;;;;;31.26;36.51;100349.16;4954936;28;98623;-64
2023/09/20 09:48:34;;;;;;;;;;;;;;;32.02;36.00;100340.84;4957999;28;98330;-63
2023/09/20 09:51:01;;;;;;;;;;;;;;;32.79;35.60;100340.22;4952420;28;98341;-63
2023/09/20 09:53:30;;;;;;;;;;;;;;;33.59;35.24;100343.31;4952250;28;98031;-64
2023/09/20 09:55:56;;;;;;;;;;;;;;;34.15;35.12;100338.63;4953371;28;98879;-63
2023/09/20 09:58:22;;;;;;;;;;;;;;;34.35;35.38;100338.59;4970263;27;103085;-63
2023/09/20 10:00:50;;;;;;;;;;;;;;;33.72;36.18;100331.09;4975608;27;112901;-57
2023/09/20 10:03:32;;;;;;;;;;;;;;;33.25;36.20;100324.75;4952186;28;99251;-64
2023/09/20 10:06:09;;;;;;;;;;;;;;;33.87;35.78;100314.78;4945427;28;98244;-57
2023/09/20 10:08:39;;;;;;;;;;;;;;;33.72;36.59;100316.31;4965161;28;98369;-64
2023/09/20 10:11:06;;;;;;;;;;;;;;;34.31;35.85;100301.53;4941015;28;98714;-57
2023/09/20 10:13:33;;;;;;;;;;;;;;;33.67;34.37;100306.41;4940880;28;98299;-63
2023/09/20 10:16:01;;;;;;;;;;;;;;;34.08;33.76;100313.59;4945775;28;98135;-58
2023/09/20 10:18:52;;;;;;;;;;;;;;;33.82;35.99;100315.31;4960435;28;103662;-64
2023/09/20 10:21:22;;;;;;;;;;;;;;;34.02;35.27;100309.72;4959299;28;99990;-64
2023/09/20 10:23:48;;;;;;;;;;;;;;;34.25;35.48;100289.28;4958229;28;98321;-55
2023/09/20 10:26:15;;;;;;;;;;;;;;;34.06;35.95;100296.47;4958514;28;98468;-63
2023/09/20 10:28:44;;;;;;;;;;;;;;;33.23;36.55;100299.25;4958644;27;98366;-63
2023/09/20 10:31:17;;;;;;;;;;;;;;;33.39;36.64;100290.97;4958348;28;98262;-56
2023/09/20 10:33:56;;;;;;;;;;;;;;;33.33;36.54;100303.06;4943206;28;98230;-63
2023/09/20 10:36:24;;;;;;;;;;;;;;;33.15;36.76;100297.81;4945489;27;98379;-56
2023/09/20 10:39:10;;;;;;;;;;;;;;;34.15;35.71;100293.06;4945192;28;99692;-63
2023/09/20 10:41:43;;;;;;;;;;;;;;;35.48;34.62;100288.63;4973008;27;104162;-63
2023/09/20 10:44:28;;;;;;;;;;;;;;;35.35;35.12;100283.00;4973849;27;98220;-57
2023/09/20 10:46:54;;;;;;;;;;;;;;;35.36;35.17;100280.97;4932853;28;99647;-63
2023/09/20 10:49:43;;;;;;;;;;;;;;;35.80;34.96;100279.34;4947552;28;99429;-63
2023/09/20 10:52:09;;;;;;;;;;;;;;;36.12;34.96;100275.63;4931825;28;100267;-56
2023/09/20 10:54:39;;;;;;;;;;;;;;;36.38;34.74;100279.22;4961452;27;99927;-62
2023/09/20 10:57:09;;;;;;;;;;;;;;;36.61;34.89;100280.13;4950489;28;98689;-63
2023/09/20 10:59:36;;;;;;;;;;;;;;;36.94;34.46;100275.03;4931372;28;98718;-56
2023/09/20 11:02:08;;;;;;;;;;;;;;;37.38;34.16;100277.16;4943154;28;98525;-56
2023/09/20 11:04:35;;;;;;;;;;;;;;;37.70;34.53;100276.00;4961365;28;98174;-63
2023/09/20 11:07:02;;;;;;;;;;;;;;;37.56;34.29;100268.88;4958403;28;98820;-63
2023/09/20 11:09:33;;;;;;;;;;;;;;;37.58;34.56;100272.03;4942113;28;100122;-63
2023/09/20 11:12:06;;;;;;;;;;;;;;;37.38;34.08;100269.50;4954173;28;98620;-57
2023/09/20 11:14:37;;;;;;;;;;;;;;;37.96;34.00;100254.13;4948261;28;100533;-63
2023/09/20 11:17:05;;;;;;;;;;;;;;;38.42;33.34;100254.38;4946454;28;100238;-56
2023/09/20 11:19:32;;;;;;;;;;;;;;;38.70;33.56;100246.75;4957852;28;98330;-63
2023/09/20 11:21:58;;;;;;;;;;;;;;;39.06;33.03;100257.31;4944915;28;98795;-63
2023/09/20 11:24:26;;;;;;;;;;;;;;;39.34;33.23;100249.69;4928372;28;115258;-57
2023/09/20 11:26:53;;;;;;;;;;;;;;;39.61;32.74;100246.00;4930652;28;98362;-56
2023/09/20 11:29:19;;;;;;;;;;;;;;;39.69;32.68;100244.47;4941962;28;98314;-62
2023/09/20 11:31:46;;;;;;;;;;;;;;;39.63;33.15;100240.69;4943560;28;99084;-56
2023/09/20 11:34:17;;;;;;;;;;;;;;;39.56;33.33;100228.97;4955736;28;98269;-63
2023/09/20 11:36:43;;;;;;;;;;;;;;;39.41;33.29;100229.63;4957999;28;98840;-56
2023/09/20 11:39:09;;;;;;;;;;;;;;;39.30;33.62;100239.81;4947732;28;100028;-62
2023/09/20 11:41:36;;;;;;;;;;;;;;;39.36;33.94;100224.63;4959055;28;108423;-56
2023/09/20 11:44:05;;;;;;;;;;;;;;;39.53;33.42;100227.88;4970492;27;98008;-63
2023/09/20 11:46:35;;;;;;;;;;;;;;;39.17;34.04;100223.03;4942388;28;99889;-57
2023/09/20 11:49:02;;;;;;;;;;;;;;;39.07;33.75;100224.28;4959880;28;98875;-56
2023/09/20 11:51:32;;;;;;;;;;;;;;;39.02;33.98;100220.84;4924506;28;110317;-62
2023/09/20 11:53:59;;;;;;;;;;;;;;;37.77;34.55;100217.47;4961314;28;98460;-62
2023/09/20 11:56:29;;;;;;;;;;;;;;;36.90;35.60;100217.41;4940888;28;99631;-62
2023/09/20 11:58:59;;;;;;;;;;;;;;;36.95;35.44;100202.84;4959297;28;99485;-63
2023/09/20 12:01:26;;;;;;;;;;;;;;;37.02;34.42;100205.38;4954053;28;98077;-63
2023/09/20 12:03:52;;;;;;;;;;;;;;;37.46;34.61;100202.63;4956047;28;98215;-56
2023/09/20 12:06:19;;;;;;;;;;;;;;;37.51;32.55;100193.59;4941439;28;98525;-63
2023/09/20 12:08:45;;;;;;;;;;;;;;;37.41;33.47;100189.94;4954977;28;98137;-56
2023/09/20 12:11:11;;;;;;;;;;;;;;;37.41;34.04;100180.72;4925840;28;98027;-57
2023/09/20 12:13:38;;;;;;;;;;;;;;;36.86;34.10;100183.84;4959189;28;98359;-56
2023/09/20 12:16:04;;;;;;;;;;;;;;;36.99;34.54;100184.63;4927212;28;98657;-63
2023/09/20 12:18:30;;;;;;;;;;;;;;;36.91;34.15;100186.09;4939308;28;98602;-63
2023/09/20 12:20:57;;;;;;;;;;;;;;;36.17;35.16;100181.75;4922110;28;98258;-56
2023/09/20 12:23:23;;;;;;;;;;;;;;;35.40;34.76;100176.00;4921740;28;98145;-56
2023/09/20 12:25:49;;;;;;;;;;;;;;;35.21;33.91;100176.19;4974481;27;98181;-57
2023/09/20 12:28:15;;;;;;;;;;;;;;;35.05;35.07;100171.41;4958258;28;98780;-63
2023/09/20 12:30:42;;;;;;;;;;;;;;;35.10;34.97;100160.47;4958738;28;114822;-57
2023/09/20 12:33:08;;;;;;;;;;;;;;;35.01;34.72;100177.13;4941718;28;98184;-57
2023/09/20 12:35:35;;;;;;;;;;;;;;;34.79;34.88;100153.72;4959187;28;98003;-57
2023/09/20 12:38:01;;;;;;;;;;;;;;;34.59;35.51;100160.22;4939820;28;98465;-63
2023/09/20 12:40:29;;;;;;;;;;;;;;;34.40;35.19;100159.06;4954471;28;108814;-63
2023/09/20 12:42:55;;;;;;;;;;;;;;;34.25;35.49;100160.66;4925638;28;98248;-63
2023/09/20 12:45:22;;;;;;;;;;;;;;;34.16;35.56;100149.31;4937867;28;99411;-56
2023/09/20 12:47:48;;;;;;;;;;;;;;;34.00;35.83;100152.88;4970312;27;98289;-63
2023/09/20 12:50:14;;;;;;;;;;;;;;;33.93;36.05;100153.00;4954499;28;98254;-57
2023/09/20 12:52:42;;;;;;;;;;;;;;;33.81;35.83;100156.47;4958110;28;121108;-63
2023/09/20 12:55:10;;;;;;;;;;;;;;;33.66;36.04;100147.63;4954996;28;98286;-56
2023/09/20 12:57:38;;;;;;;;;;;;;;;33.48;35.65;100142.41;4927899;28;98086;-56
2023/09/20 13:00:05;;;;;;;;;;;;;;;33.41;35.68;100134.97;4942666;28;98182;-62
2023/09/20 13:02:32;;;;;;;;;;;;;;;33.34;35.44;100131.53;4940335;28;109267;-63
2023/09/20 13:04:59;;;;;;;;;;;;;;;33.16;35.95;100124.28;4956316;28;98762;-56
2023/09/20 13:07:29;;;;;;;;;;;;;;;32.90;35.92;100128.00;4945955;28;97922;-56
2023/09/20 13:09:57;;;;;;;;;;;;;;;32.60;36.19;100137.31;4940863;28;99666;-63
2023/09/20 13:12:23;;;;;;;;;;;;;;;32.38;35.64;100136.84;4928534;28;98253;-63
2023/09/20 13:14:50;;;;;;;;;;;;;;;32.22;36.04;100131.94;4954665;28;122095;-56
2023/09/20 13:17:16;;;;;;;;;;;;;;;32.07;36.04;100128.63;4957504;28;98122;-56
2023/09/20 13:19:42;;;;;;;;;;;;;;;31.97;36.17;100133.13;4943071;28;119168;-56
2023/09/20 13:22:09;;;;;;;;;;;;;;;31.88;35.90;100132.88;4955267;28;116385;-63
2023/09/20 13:24:35;;;;;;;;;;;;;;;31.83;36.28;100127.72;4956961;28;99187;-56
2023/09/20 13:27:02;;;;;;;;;;;;;;;31.65;35.99;100122.44;4957427;28;98201;-63